Time;durP1;ratioP1;P1;durP2;ratioP2;P2;SDS_P1;SDS_P2;PMS_P1;PMS_P2;Temp;Humidity;BMP_temperature;BMP_pressure;BME280_temperature;BME280_humidity;BME280_pressure;Samples;Min_cycle;Max_cycle;Signal;HPM_P1;HPM_P2
2021/01/23 00:02:09;;;;;;;15.10;12.93;;;2.30;99.90;;;;;;4904418;29;20230;-80
2021/01/23 00:04:37;;;;;;;15.17;13.60;;;2.30;99.90;;;;;;4905343;29;20227;-80
2021/01/23 00:07:04;;;;;;;18.45;13.63;;;2.30;99.90;;;;;;4921401;29;20811;-80
2021/01/23 00:09:32;;;;;;;17.52;13.68;;;2.30;99.90;;;;;;4889665;29;20252;-81
2021/01/23 00:11:59;;;;;;;18.63;14.40;;;2.30;99.90;;;;;;4923262;29;20246;-81
2021/01/23 00:14:27;;;;;;;18.10;14.70;;;2.30;99.90;;;;;;4923642;29;20239;-82
2021/01/23 00:16:57;;;;;;;21.27;14.10;;;2.30;99.90;;;;;;4924104;29;20791;-81
2021/01/23 00:19:24;;;;;;;24.10;15.03;;;2.30;99.90;;;;;;4921365;29;20227;-81
2021/01/23 00:21:52;;;;;;;17.60;14.97;;;2.30;99.90;;;;;;4923219;29;20226;-81
2021/01/23 00:24:20;;;;;;;19.37;15.33;;;2.30;99.90;;;;;;4904369;29;20270;-80
2021/01/23 00:26:47;;;;;;;16.30;14.60;;;2.40;99.90;;;;;;4906455;29;20231;-80
2021/01/23 00:29:15;;;;;;;18.30;14.93;;;2.50;99.90;;;;;;4922151;29;20227;-80
2021/01/23 00:31:42;;;;;;;23.77;15.90;;;2.60;99.90;;;;;;4924482;29;20715;-81
2021/01/23 00:34:11;;;;;;;24.20;15.97;;;2.60;99.90;;;;;;4924144;29;20223;-80
2021/01/23 00:36:39;;;;;;;18.80;14.87;;;2.50;99.90;;;;;;4941678;29;20215;-81
2021/01/23 00:39:07;;;;;;;15.57;13.98;;;2.60;99.90;;;;;;4941424;29;20243;-80
2021/01/23 00:41:34;;;;;;;21.60;17.37;;;2.60;99.90;;;;;;4923974;29;20727;-78
2021/01/23 00:44:05;;;;;;;19.80;17.10;;;2.60;99.90;;;;;;4908186;29;20228;-80
2021/01/23 00:46:32;;;;;;;24.37;16.07;;;2.60;99.90;;;;;;4923560;29;20282;-80
2021/01/23 00:48:59;;;;;;;17.43;14.30;;;2.50;99.90;;;;;;4923133;29;20247;-81
2021/01/23 00:51:26;;;;;;;19.30;15.20;;;2.50;99.90;;;;;;4907234;29;20223;-80
2021/01/23 00:53:56;;;;;;;17.30;14.77;;;2.50;99.90;;;;;;4906485;29;20215;-80
2021/01/23 00:56:24;;;;;;;20.57;15.93;;;2.40;99.90;;;;;;4939050;29;20235;-80
2021/01/23 00:58:55;;;;;;;20.40;15.17;;;2.40;99.90;;;;;;4906803;29;20219;-80
2021/01/23 01:01:22;;;;;;;18.20;16.30;;;2.40;99.90;;;;;;4906462;29;20207;-80
2021/01/23 01:03:51;;;;;;;25.55;16.52;;;2.30;99.90;;;;;;4922627;29;20595;-80
2021/01/23 01:06:18;;;;;;;22.13;15.77;;;2.30;99.90;;;;;;4921916;29;20363;-80
2021/01/23 01:08:45;;;;;;;20.88;14.55;;;2.40;99.90;;;;;;4940204;29;20274;-80
2021/01/23 01:11:12;;;;;;;16.38;14.60;;;2.50;99.90;;;;;;4923839;29;20222;-80
2021/01/23 01:13:40;;;;;;;20.43;15.33;;;2.50;99.90;;;;;;4923596;29;20723;-80
2021/01/23 01:16:08;;;;;;;21.07;15.43;;;2.40;99.90;;;;;;4922001;29;20235;-80
2021/01/23 01:18:36;;;;;;;19.77;15.20;;;2.30;99.90;;;;;;4909160;29;20275;-82
2021/01/23 01:21:04;;;;;;;19.83;16.77;;;2.30;99.90;;;;;;4909412;29;20227;-81
2021/01/23 01:23:33;;;;;;;20.03;16.33;;;2.10;99.90;;;;;;4923804;29;20219;-81
2021/01/23 01:26:00;;;;;;;21.30;16.90;;;2.10;99.90;;;;;;4940554;29;20246;-81
2021/01/23 01:28:28;;;;;;;19.10;15.97;;;2.10;99.90;;;;;;4908338;29;20219;-81
2021/01/23 01:30:56;;;;;;;20.40;16.20;;;2.10;99.90;;;;;;4913797;29;20231;-81
2021/01/23 01:33:22;;;;;;;21.05;16.45;;;2.00;99.90;;;;;;4919062;29;20219;-81
2021/01/23 01:35:50;;;;;;;19.13;15.63;;;2.00;99.90;;;;;;4950796;29;20231;-81
2021/01/23 01:38:17;;;;;;;22.43;17.53;;;2.00;99.90;;;;;;4935293;29;20215;-81
2021/01/23 01:40:44;;;;;;;26.13;16.30;;;1.90;99.90;;;;;;4934752;29;20219;-80
2021/01/23 01:43:10;;;;;;;23.27;16.00;;;2.10;99.90;;;;;;4944593;29;20219;-81
2021/01/23 01:45:38;;;;;;;18.70;16.70;;;2.10;99.90;;;;;;4925398;29;20647;-80
2021/01/23 01:48:08;;;;;;;23.67;17.53;;;2.10;99.90;;;;;;4942666;29;20309;-82
2021/01/23 01:50:35;;;;;;;21.57;16.77;;;2.10;99.90;;;;;;4923882;29;20219;-81
2021/01/23 01:53:02;;;;;;;22.37;15.63;;;2.10;99.90;;;;;;4906794;29;20219;-80
2021/01/23 01:55:32;;;;;;;23.33;17.73;;;2.10;99.90;;;;;;4925056;29;20294;-80
2021/01/23 01:57:59;;;;;;;20.47;17.43;;;2.20;99.90;;;;;;4924115;29;20227;-80
2021/01/23 02:00:26;;;;;;;24.70;18.33;;;2.20;99.90;;;;;;4942022;29;20307;-81
2021/01/23 02:03:17;;;;;;;20.73;16.70;;;2.20;99.90;;;;;;4925469;29;20302;-82
2021/01/23 02:05:54;;;;;;;18.43;16.07;;;2.30;99.90;;;;;;4909072;29;20254;-81
2021/01/23 02:08:29;;;;;;;22.20;16.60;;;2.30;99.90;;;;;;4924969;29;20211;-81
2021/01/23 02:11:05;;;;;;;17.87;15.50;;;2.30;99.90;;;;;;4924001;29;20281;-81
2021/01/23 02:13:37;;;;;;;23.30;16.87;;;2.10;99.90;;;;;;4924363;29;20589;-81
2021/01/23 02:16:09;;;;;;;20.17;16.53;;;2.20;99.90;;;;;;4907493;29;20647;-81
2021/01/23 02:18:40;;;;;;;22.90;16.77;;;2.10;99.90;;;;;;4923510;29;20223;-81
2021/01/23 02:21:50;;;;;;;19.10;15.20;;;2.10;99.90;;;;;;4922858;29;20287;-81
2021/01/23 02:24:23;;;;;;;24.43;17.47;;;2.10;99.90;;;;;;4922869;29;20218;-81
2021/01/23 02:27:07;;;;;;;28.57;17.97;;;2.20;99.90;;;;;;4919009;29;20226;-81
2021/01/23 11:47:40;;;;;;;13.47;10.73;;;6.40;99.90;;;;;;4896230;29;20637;-76
2021/01/23 12:15:02;;;;;;;14.03;9.70;;;6.30;99.90;;;;;;4925110;29;20213;-83
2021/01/23 12:18:20;;;;;;;12.00;8.80;;;6.80;99.90;;;;;;4908843;29;20229;-83
2021/01/23 12:20:49;;;;;;;12.27;8.97;;;6.90;99.90;;;;;;4899020;29;21145;-83
2021/01/23 12:23:35;;;;;;;10.45;9.35;;;7.20;99.90;;;;;;4923266;29;20226;-82
2021/01/23 12:38:47;;;;;;;7.43;6.65;;;9.00;99.90;;;;;;4791134;30;20324;-82
2021/01/23 12:48:16;;;;;;;9.02;7.10;;;8.10;99.90;;;;;;4886567;29;20231;-84
2021/01/23 12:54:38;;;;;;;9.13;7.57;;;7.60;99.90;;;;;;4933321;29;20712;-83
2021/01/23 13:01:46;;;;;;;12.50;7.93;;;8.30;99.90;;;;;;4910669;29;20227;-83
2021/01/23 13:04:26;;;;;;;10.60;8.02;;;8.20;99.90;;;;;;4922592;29;20231;-82
2021/01/23 13:07:06;;;;;;;11.33;8.50;;;8.30;99.90;;;;;;4906858;29;20229;-82
2021/01/23 13:09:50;;;;;;;13.00;8.68;;;8.00;99.90;;;;;;4924347;29;20228;-82
2021/01/23 13:12:40;;;;;;;12.65;10.02;;;8.20;99.90;;;;;;4905842;29;20232;-82
2021/01/23 13:18:17;;;;;;;10.45;8.77;;;8.40;99.90;;;;;;4901409;29;20295;-80
2021/01/23 13:21:47;;;;;;;13.80;10.27;;;8.40;99.90;;;;;;4902748;29;20220;-81
2021/01/23 13:24:20;;;;;;;12.10;9.67;;;8.60;99.90;;;;;;4856579;29;20653;-81
2021/01/23 13:27:10;;;;;;;12.50;9.63;;;8.20;99.90;;;;;;4913080;29;20240;-82
2021/01/23 13:29:39;;;;;;;12.15;10.65;;;8.20;99.90;;;;;;4910815;29;20492;-83
2021/01/23 13:32:42;;;;;;;12.45;10.82;;;8.20;99.90;;;;;;4896043;29;20296;-84
2021/01/23 13:35:26;;;;;;;12.20;10.30;;;7.50;99.90;;;;;;4878047;29;20228;-84
2021/01/23 13:43:00;;;;;;;12.70;11.33;;;8.20;99.90;;;;;;4892843;29;20200;-83
2021/01/23 13:45:38;;;;;;;14.45;9.52;;;8.00;99.90;;;;;;4865088;29;20243;-84
2021/01/23 13:48:41;;;;;;;12.83;10.40;;;7.50;99.90;;;;;;4892220;29;20209;-83
2021/01/23 13:54:08;;;;;;;11.40;10.20;;;6.40;99.90;;;;;;4894346;29;20224;-84
2021/01/23 13:57:19;;;;;;;16.05;10.25;;;6.30;99.90;;;;;;4893872;29;20231;-84
2021/01/23 14:00:29;;;;;;;13.07;9.45;;;6.20;99.90;;;;;;4898168;29;20247;-84
2021/01/23 14:14:43;;;;;;;13.05;10.50;;;6.90;99.90;;;;;;4902941;29;20208;-84
2021/01/23 14:20:26;;;;;;;12.57;9.57;;;7.00;99.90;;;;;;4863390;29;20722;-84
2021/01/23 14:23:10;;;;;;;15.13;10.10;;;6.90;99.90;;;;;;4905585;29;20222;-84
2021/01/23 14:25:54;;;;;;;11.50;9.60;;;6.70;99.90;;;;;;4905306;29;20679;-84
2021/01/23 14:29:21;;;;;;;12.73;10.07;;;6.70;99.90;;;;;;4915891;29;20211;-84
2021/01/23 14:40:14;;;;;;;10.93;9.50;;;6.70;99.90;;;;;;5175654;27;20858;-83
2021/01/23 14:43:22;;;;;;;10.17;9.03;;;6.70;99.90;;;;;;5108880;27;20264;-83
2021/01/23 14:53:53;;;;;;;13.63;9.53;;;6.60;99.90;;;;;;5082905;28;20214;-85
2021/01/23 15:00:46;;;;;;;10.53;9.43;;;6.40;99.90;;;;;;5058538;28;20226;-83
2021/01/23 15:03:47;;;;;;;42.93;11.77;;;6.10;99.90;;;;;;5051028;28;20236;-83
2021/01/23 15:06:31;;;;;;;13.47;9.10;;;6.00;99.90;;;;;;5104897;22;20255;-84
2021/01/23 15:09:41;;;;;;;;;;;;;;;;;;;;;
2021/01/23 15:19:34;;;;;;;9.60;8.60;;;5.60;99.90;;;;;;5045817;28;20276;-83
2021/01/23 15:22:53;;;;;;;12.47;8.93;;;5.70;99.90;;;;;;5091388;28;20899;-82
2021/01/23 15:30:50;;;;;;;13.10;9.63;;;5.60;99.90;;;;;;5024480;28;20202;-83
2021/01/23 15:36:58;;;;;;;12.37;8.83;;;5.40;99.90;;;;;;5076158;28;20225;-82
2021/01/23 15:39:25;;;;;;;10.15;9.05;;;5.20;99.90;;;;;;5075544;28;20214;-82
2021/01/23 15:41:52;;;;;;;30.70;17.45;;;5.00;99.90;;;;;;5068421;28;20197;-81
2021/01/23 15:44:19;;;;;;;12.83;9.87;;;4.90;99.90;;;;;;5087405;28;20206;-81
2021/01/23 15:46:46;;;;;;;15.30;11.53;;;4.80;99.90;;;;;;5082839;28;20222;-80
2021/01/23 15:49:14;;;;;;;10.53;9.30;;;4.70;99.90;;;;;;5099266;28;20211;-80
2021/01/23 15:51:41;;;;;;;11.93;8.77;;;4.60;99.90;;;;;;5070090;28;20221;-81
2021/01/23 15:54:10;;;;;;;11.67;10.47;;;4.60;99.90;;;;;;5071463;28;20201;-82
2021/01/23 15:56:37;;;;;;;11.30;10.10;;;4.60;99.90;;;;;;5065317;28;20266;-82
2021/01/23 15:59:04;;;;;;;13.10;10.33;;;4.60;99.90;;;;;;5076895;28;20249;-81
2021/01/23 16:01:31;;;;;;;11.88;10.68;;;4.60;99.90;;;;;;5046593;28;20229;-82
2021/01/23 16:03:58;;;;;;;15.90;9.73;;;4.60;99.90;;;;;;5083628;28;20233;-81
2021/01/23 16:06:25;;;;;;;15.10;10.23;;;4.60;99.90;;;;;;5064487;28;20293;-82
2021/01/23 16:08:53;;;;;;;20.43;15.67;;;4.60;99.90;;;;;;5083039;28;20222;-81
2021/01/23 16:11:21;;;;;;;18.47;12.37;;;4.60;99.90;;;;;;5082387;28;20214;-81
2021/01/23 16:13:50;;;;;;;12.90;11.13;;;4.50;99.90;;;;;;5085150;28;20240;-81
2021/01/23 16:16:17;;;;;;;17.33;11.57;;;4.50;99.90;;;;;;5103733;28;20226;-82
2021/01/23 16:18:44;;;;;;;10.65;9.65;;;4.50;99.90;;;;;;5081533;28;20245;-82
2021/01/23 16:21:11;;;;;;;11.20;10.00;;;4.50;99.90;;;;;;5081646;28;20769;-82
2021/01/23 16:23:38;;;;;;;12.18;10.40;;;4.40;99.90;;;;;;5100018;28;20244;-82
2021/01/23 16:26:05;;;;;;;11.85;10.60;;;4.40;99.90;;;;;;5099847;28;20230;-82
2021/01/23 16:28:33;;;;;;;12.30;9.57;;;4.30;99.90;;;;;;5080427;28;20218;-81
2021/01/23 16:31:00;;;;;;;10.73;9.53;;;4.30;99.90;;;;;;5081982;28;20226;-80
2021/01/23 16:33:27;;;;;;;10.67;9.57;;;4.20;99.90;;;;;;5062143;28;20218;-81
2021/01/23 16:35:59;;;;;;;12.87;10.80;;;4.10;99.90;;;;;;5049432;28;20297;-82
2021/01/23 16:38:26;;;;;;;14.13;10.73;;;4.20;99.90;;;;;;5081731;28;20764;-81
2021/01/23 16:40:55;;;;;;;15.83;11.80;;;4.20;99.90;;;;;;5063242;28;20215;-82
2021/01/23 16:43:22;;;;;;;16.33;13.00;;;4.20;99.90;;;;;;5063310;28;20778;-79
2021/01/23 16:45:51;;;;;;;12.93;11.32;;;4.20;99.90;;;;;;5080403;28;20221;-81
2021/01/23 16:48:18;;;;;;;17.23;12.17;;;4.10;99.90;;;;;;5061171;28;20732;-82
2021/01/23 16:50:45;;;;;;;11.15;9.77;;;4.30;99.90;;;;;;5063009;28;20229;-83
2021/01/23 16:53:13;;;;;;;11.00;9.63;;;4.30;99.90;;;;;;5068555;28;20271;-82
2021/01/23 16:55:40;;;;;;;57.90;39.37;;;4.40;99.90;;;;;;5040449;28;20214;-82
2021/01/23 16:58:09;;;;;;;46.23;29.57;;;4.40;99.90;;;;;;5080327;28;20238;-81
2021/01/23 17:00:36;;;;;;;19.45;15.88;;;4.40;99.90;;;;;;5075800;28;20218;-81
2021/01/23 17:03:05;;;;;;;14.30;11.97;;;4.40;99.90;;;;;;5078287;28;20259;-83
2021/01/23 17:11:15;;;;;;;18.80;14.53;;;4.50;99.90;;;;;;5034471;28;20334;-82
2021/01/23 17:13:43;;;;;;;16.42;12.85;;;4.50;99.90;;;;;;5002693;28;20243;-83
2021/01/23 17:16:11;;;;;;;17.37;13.13;;;4.50;99.90;;;;;;5036589;28;20347;-82
2021/01/23 17:18:46;;;;;;;16.97;14.60;;;4.30;99.90;;;;;;5020254;28;20227;-81
2021/01/23 17:21:13;;;;;;;16.73;14.70;;;4.50;99.90;;;;;;5021123;28;20218;-83
2021/01/23 17:23:40;;;;;;;18.43;14.17;;;4.40;99.90;;;;;;5022567;28;20223;-82
2021/01/23 17:26:07;;;;;;;17.20;13.77;;;4.30;99.90;;;;;;5038204;28;20220;-82
2021/01/23 17:28:34;;;;;;;19.00;16.03;;;4.20;99.90;;;;;;5004781;28;20219;-82
2021/01/23 17:31:01;;;;;;;17.17;15.40;;;4.10;99.90;;;;;;5040061;28;20235;-83
2021/01/23 17:33:28;;;;;;;23.48;16.50;;;4.10;99.90;;;;;;5040221;28;20223;-82
2021/01/23 17:35:56;;;;;;;19.07;15.87;;;3.90;99.90;;;;;;5038560;28;20387;-82
2021/01/23 17:38:23;;;;;;;19.50;17.20;;;3.90;99.90;;;;;;5003772;28;20258;-82
2021/01/23 17:40:51;;;;;;;21.80;15.63;;;3.70;99.90;;;;;;5035956;28;20671;-82
2021/01/23 17:43:18;;;;;;;19.07;16.30;;;3.70;99.90;;;;;;5039716;28;20208;-82
2021/01/23 17:45:45;;;;;;;19.90;14.93;;;3.60;99.90;;;;;;5043923;28;20238;-84
2021/01/23 17:48:14;;;;;;;19.93;16.27;;;3.60;99.90;;;;;;5020226;28;20226;-85
2021/01/23 17:50:43;;;;;;;18.63;15.07;;;3.60;99.90;;;;;;5016336;28;20243;-83
2021/01/23 17:53:14;;;;;;;19.20;15.77;;;3.60;99.90;;;;;;5038786;28;20239;-82
2021/01/23 17:55:42;;;;;;;19.93;16.60;;;3.60;99.90;;;;;;5037523;28;21493;-82
2021/01/23 17:58:10;;;;;;;19.20;15.33;;;3.60;99.90;;;;;;5019777;28;20226;-82
2021/01/23 18:00:37;;;;;;;16.13;14.43;;;3.50;99.90;;;;;;5038860;28;20218;-82
2021/01/23 18:03:04;;;;;;;21.30;16.60;;;3.50;99.90;;;;;;5018587;28;20226;-81
2021/01/23 18:05:31;;;;;;;23.17;20.67;;;3.80;99.90;;;;;;5003252;28;20192;-82
2021/01/23 18:07:58;;;;;;;21.05;17.02;;;3.60;99.90;;;;;;5035873;28;20204;-81
2021/01/23 18:10:26;;;;;;;27.25;19.58;;;3.50;99.90;;;;;;5019766;28;20219;-81
2021/01/23 18:12:53;;;;;;;21.23;18.43;;;3.60;99.90;;;;;;5017553;28;20704;-80
2021/01/23 18:15:22;;;;;;;21.03;18.23;;;3.50;99.90;;;;;;5017363;28;20226;-81
2021/01/23 18:17:50;;;;;;;28.40;21.00;;;3.40;99.90;;;;;;5016914;28;20238;-82
2021/01/23 18:20:17;;;;;;;26.70;20.97;;;3.10;99.90;;;;;;5035971;28;20212;-81
2021/01/23 18:22:44;;;;;;;27.37;20.67;;;3.30;99.90;;;;;;5002625;28;20223;-81
2021/01/23 18:25:12;;;;;;;27.10;21.60;;;3.30;99.90;;;;;;5018758;28;20223;-82
2021/01/23 18:27:41;;;;;;;21.30;18.37;;;3.30;99.90;;;;;;5001736;28;20242;-81
2021/01/23 18:30:10;;;;;;;29.90;19.33;;;3.20;99.90;;;;;;5039229;28;20295;-82
2021/01/23 18:32:37;;;;;;;23.07;19.43;;;3.20;99.90;;;;;;5007057;28;20722;-81
2021/01/23 18:35:11;;;;;;;25.87;18.87;;;3.10;99.90;;;;;;5021272;28;20256;-79
2021/01/23 18:37:40;;;;;;;20.50;18.13;;;3.10;99.90;;;;;;5023995;28;20238;-82
2021/01/23 18:40:08;;;;;;;21.57;17.00;;;3.10;99.90;;;;;;5044857;28;20251;-80
2021/01/23 18:42:35;;;;;;;20.13;16.63;;;3.10;99.90;;;;;;5005029;28;20220;-81
2021/01/23 18:45:03;;;;;;;20.97;17.13;;;3.20;99.90;;;;;;5003804;28;20219;-81
2021/01/23 18:47:31;;;;;;;18.80;16.90;;;3.20;99.90;;;;;;5019254;28;20232;-82
2021/01/23 18:50:13;;;;;;;23.63;18.17;;;3.20;99.90;;;;;;5013880;28;20629;-83
2021/01/23 18:53:04;;;;;;;27.43;21.67;;;3.20;99.90;;;;;;5008948;28;20215;-82
2021/01/23 18:55:37;;;;;;;25.33;17.70;;;3.30;99.90;;;;;;5019198;28;20290;-78
2021/01/23 18:58:04;;;;;;;21.80;16.35;;;3.30;99.90;;;;;;5017063;28;20235;-84
2021/01/23 19:00:33;;;;;;;23.50;19.97;;;3.30;99.90;;;;;;5037300;28;20274;-82
2021/01/23 19:03:00;;;;;;;22.93;16.90;;;3.30;99.90;;;;;;5003541;28;20224;-82
2021/01/23 19:05:27;;;;;;;16.90;15.10;;;3.40;99.90;;;;;;5024736;28;20217;-82
2021/01/23 19:07:59;;;;;;;18.07;16.07;;;3.40;99.90;;;;;;5021894;28;20312;-83
2021/01/23 19:11:18;;;;;;;19.83;17.10;;;3.30;99.90;;;;;;5021255;28;20196;-82
2021/01/23 19:13:48;;;;;;;17.53;14.63;;;3.40;99.90;;;;;;5020564;28;20208;-83
2021/01/23 19:16:16;;;;;;;19.47;14.40;;;3.50;99.90;;;;;;5019817;28;20227;-83
2021/01/23 19:18:43;;;;;;;17.50;15.67;;;3.50;99.90;;;;;;5019322;28;20285;-83
2021/01/23 19:21:10;;;;;;;16.43;14.40;;;3.50;99.90;;;;;;5036459;28;20216;-82
2021/01/23 19:23:40;;;;;;;20.23;14.80;;;3.50;99.90;;;;;;5036454;28;20222;-83
2021/01/23 19:26:10;;;;;;;16.07;13.67;;;3.60;99.90;;;;;;5030263;28;20235;-83
2021/01/23 19:28:36;;;;;;;18.43;15.07;;;3.60;99.90;;;;;;5033727;28;20214;-83
2021/01/23 19:31:03;;;;;;;16.40;13.33;;;3.50;99.90;;;;;;5021159;28;20196;-82
2021/01/23 19:33:31;;;;;;;18.77;15.45;;;3.60;99.90;;;;;;5022593;28;20211;-82
2021/01/23 19:35:58;;;;;;;16.33;14.38;;;3.60;99.90;;;;;;5005113;28;20220;-82
2021/01/23 19:38:27;;;;;;;19.37;15.70;;;3.50;99.90;;;;;;5039823;28;20436;-82
2021/01/23 19:40:55;;;;;;;17.27;14.47;;;3.50;99.90;;;;;;5024859;28;20212;-82
2021/01/23 19:43:21;;;;;;;21.97;14.90;;;3.40;99.90;;;;;;5024684;28;20216;-83
2021/01/23 19:45:49;;;;;;;21.42;15.43;;;3.30;99.90;;;;;;5023002;28;20223;-83
2021/01/23 19:48:15;;;;;;;18.90;16.20;;;3.30;99.90;;;;;;5041372;28;20215;-82
2021/01/23 19:50:43;;;;;;;18.10;15.17;;;3.20;99.90;;;;;;5024133;28;20303;-82
2021/01/23 19:53:10;;;;;;;18.00;15.17;;;3.10;99.90;;;;;;5023142;28;20235;-83
2021/01/23 19:55:37;;;;;;;19.30;16.30;;;3.10;99.90;;;;;;5006496;28;20215;-83
2021/01/23 19:58:04;;;;;;;24.07;17.07;;;3.10;99.90;;;;;;5022650;28;20223;-82
2021/01/23 20:00:31;;;;;;;19.67;16.80;;;3.00;99.90;;;;;;5042408;28;20302;-83
2021/01/23 20:02:58;;;;;;;17.67;15.63;;;3.00;99.90;;;;;;5024495;28;20242;-82
2021/01/23 20:05:26;;;;;;;21.53;17.40;;;3.10;99.90;;;;;;5041817;28;20204;-81
2021/01/23 20:07:54;;;;;;;17.47;15.67;;;3.10;99.90;;;;;;5040689;28;20216;-82
2021/01/23 20:10:24;;;;;;;15.87;14.27;;;3.10;99.90;;;;;;5022957;28;20223;-81
2021/01/23 20:12:53;;;;;;;16.97;15.13;;;3.00;99.90;;;;;;5040892;28;20783;-81
2021/01/23 20:15:20;;;;;;;20.73;14.83;;;2.90;99.90;;;;;;5025591;28;20695;-81
2021/01/23 20:17:47;;;;;;;18.30;15.02;;;3.10;99.90;;;;;;5043050;28;20230;-81
2021/01/23 20:20:16;;;;;;;16.57;14.67;;;3.10;99.90;;;;;;5041240;28;20897;-82
2021/01/23 20:22:43;;;;;;;18.47;14.57;;;3.00;99.90;;;;;;5025263;28;20573;-81
2021/01/23 20:28:20;;;;;;;23.83;16.47;;;2.90;99.90;;;;;;5021555;28;20231;-82
2021/01/23 20:30:48;;;;;;;17.73;15.37;;;2.90;99.90;;;;;;5022525;28;20247;-82
2021/01/23 20:33:15;;;;;;;19.23;16.63;;;2.90;99.90;;;;;;5022825;28;20288;-82
2021/01/23 20:35:42;;;;;;;20.57;18.30;;;2.90;99.90;;;;;;5023220;28;20224;-83
2021/01/23 20:38:09;;;;;;;22.33;16.80;;;3.00;99.90;;;;;;5010801;28;20228;-83
2021/01/23 20:40:37;;;;;;;19.50;16.17;;;3.00;99.90;;;;;;5029103;28;20235;-83
2021/01/23 20:43:04;;;;;;;21.67;14.67;;;3.00;99.90;;;;;;5028821;28;20308;-82
2021/01/23 20:45:31;;;;;;;16.87;15.07;;;3.10;99.90;;;;;;5027520;28;20207;-82
2021/01/23 20:47:58;;;;;;;15.57;13.97;;;3.10;99.90;;;;;;5012364;28;20256;-82
2021/01/23 20:50:25;;;;;;;18.67;16.20;;;3.10;99.90;;;;;;5035575;28;20200;-83
2021/01/23 20:52:52;;;;;;;19.93;15.93;;;3.00;99.90;;;;;;5020396;28;20220;-84
2021/01/23 20:55:19;;;;;;;20.63;15.27;;;3.00;99.90;;;;;;5037226;28;20419;-84
2021/01/23 20:57:47;;;;;;;20.67;15.33;;;3.00;99.90;;;;;;5036917;28;20223;-83
2021/01/23 21:00:16;;;;;;;15.75;14.15;;;2.90;99.90;;;;;;5019541;28;20204;-82
2021/01/23 21:02:52;;;;;;;21.40;17.13;;;2.90;99.90;;;;;;5035816;28;20247;-84
2021/01/23 21:05:33;;;;;;;21.77;17.53;;;2.90;99.90;;;;;;5033248;28;20220;-83
2021/01/23 21:08:00;;;;;;;23.30;18.27;;;2.70;99.90;;;;;;5028670;28;20232;-84
2021/01/23 21:10:28;;;;;;;34.43;24.50;;;2.90;99.90;;;;;;5021027;28;20707;-84
2021/01/23 21:12:55;;;;;;;28.33;21.10;;;2.90;99.90;;;;;;5026490;28;20223;-83
2021/01/23 21:15:23;;;;;;;33.30;26.57;;;3.00;99.90;;;;;;5013943;28;20221;-83
2021/01/23 21:17:55;;;;;;;23.57;19.07;;;3.00;99.90;;;;;;5027536;28;20251;-83
2021/01/23 21:20:25;;;;;;;24.63;20.70;;;3.00;99.90;;;;;;5031383;28;20222;-85
2021/01/23 21:23:10;;;;;;;26.57;20.63;;;3.00;99.90;;;;;;5049230;28;20216;-85
2021/01/23 21:25:44;;;;;;;28.73;20.53;;;3.20;99.90;;;;;;5027313;28;20268;-83
2021/01/23 21:28:17;;;;;;;26.07;21.47;;;3.10;99.90;;;;;;5033139;28;20212;-84
2021/01/23 21:30:50;;;;;;;31.05;22.20;;;2.90;99.90;;;;;;5030965;28;20220;-84
2021/01/23 21:33:23;;;;;;;24.92;20.88;;;3.10;99.90;;;;;;5026103;28;20212;-85
2021/01/23 21:35:52;;;;;;;23.63;20.67;;;3.10;99.90;;;;;;5032459;28;20216;-84
2021/01/23 21:38:24;;;;;;;23.00;17.87;;;3.20;99.90;;;;;;5029005;28;20236;-84
2021/01/23 21:40:56;;;;;;;23.50;19.13;;;3.30;99.90;;;;;;5011821;28;20232;-84
2021/01/23 21:47:17;;;;;;;23.47;19.70;;;3.50;99.90;;;;;;5048897;22;20222;-83
2021/01/23 21:50:07;;;;;;;20.30;17.33;;;3.30;99.90;;;;;;5047924;28;20212;-84
2021/01/23 21:56:38;;;;;;;21.30;18.33;;;3.10;99.90;;;;;;4983448;28;20243;-84
2021/01/23 21:59:15;;;;;;;17.67;15.77;;;3.30;99.90;;;;;;4974771;28;20844;-84
2021/01/23 22:02:07;;;;;;;20.83;17.73;;;3.40;99.90;;;;;;5006682;28;20218;-84
2021/01/23 22:04:47;;;;;;;18.93;14.37;;;3.20;99.90;;;;;;4956972;28;20217;-84
2021/01/23 22:11:05;;;;;;;18.53;14.23;;;3.40;99.90;;;;;;2949864;22;20516;-83
2021/01/23 22:14:19;;;;;;;16.07;13.87;;;3.30;99.90;;;;;;4981306;28;20568;-83
2021/01/23 22:16:57;;;;;;;21.03;16.30;;;3.40;99.90;;;;;;4941070;29;20251;-83
2021/01/23 22:19:35;;;;;;;18.55;14.60;;;3.40;99.90;;;;;;4940425;29;20711;-83
2021/01/23 22:22:06;;;;;;;17.53;15.63;;;3.30;99.90;;;;;;4941735;29;20207;-84
2021/01/23 22:24:57;;;;;;;17.77;14.53;;;3.30;99.90;;;;;;4938033;29;20211;-83
2021/01/23 22:41:15;;;;;;;16.67;13.73;;;3.00;99.90;;;;;;5047670;22;20231;-85
2021/01/23 22:43:45;;;;;;;16.47;14.70;;;2.80;99.90;;;;;;5035533;28;20212;-84
2021/01/23 22:46:22;;;;;;;16.13;14.43;;;3.00;99.90;;;;;;5035518;28;20216;-85
2021/01/23 23:02:48;;;;;;;;;;;;;;;;;;;;;
2021/01/23 23:06:04;;;;;;;16.88;14.13;;;3.00;99.90;;;;;;6305830;22;20665;-83
2021/01/23 23:09:14;;;;;;;16.73;14.93;;;2.80;99.90;;;;;;6244690;22;20172;-83
2021/01/23 23:15:58;;;;;;;16.33;13.73;;;2.80;99.90;;;;;;6298251;22;20204;-83
2021/01/23 23:21:52;;;;;;;16.53;12.73;;;3.00;99.90;;;;;;6320752;22;20181;-83
2021/01/23 23:24:21;;;;;;;17.35;14.25;;;3.00;99.90;;;;;;6315216;22;20188;-84
2021/01/23 23:26:50;;;;;;;21.58;13.85;;;2.90;99.90;;;;;;6293554;22;20208;-83
2021/01/23 23:29:24;;;;;;;18.73;14.50;;;3.00;99.90;;;;;;6320438;22;20240;-83
2021/01/23 23:31:51;;;;;;;25.93;20.13;;;3.00;99.90;;;;;;6320243;22;20195;-84
2021/01/23 23:34:22;;;;;;;24.27;19.27;;;3.00;99.90;;;;;;6321759;22;20177;-85
2021/01/23 23:36:51;;;;;;;19.30;17.20;;;3.00;99.90;;;;;;6321538;22;20227;-84
2021/01/23 23:42:24;;;;;;;19.50;16.20;;;2.90;99.90;;;;;;6317971;22;20179;-83
2021/01/23 23:44:52;;;;;;;18.27;14.80;;;2.80;99.90;;;;;;6321707;22;20181;-83
2021/01/23 23:47:20;;;;;;;17.80;15.47;;;2.60;99.90;;;;;;6329090;22;20192;-84
2021/01/23 23:49:48;;;;;;;15.77;14.03;;;2.90;99.90;;;;;;6302205;22;20207;-83
2021/01/23 23:52:15;;;;;;;16.83;14.77;;;2.90;99.90;;;;;;6299631;22;20164;-84
2021/01/23 23:54:42;;;;;;;16.17;14.50;;;2.90;99.90;;;;;;6282122;22;20199;-84
2021/01/23 23:57:09;;;;;;;21.20;16.80;;;2.90;99.90;;;;;;6295709;22;20193;-84
2021/01/23 23:59:37;;;;;;;16.73;14.10;;;2.80;99.90;;;;;;6289929;22;20189;-84
